sensor_id;sensor_type;location;lat;lon;timestamp;P1;durP1;ratioP1;P2;durP2;ratioP2
20792;SDS011;10556;-33.662;151.094;2024-02-21T00:01:09;1.80;;;0.57;;
20792;SDS011;10556;-33.662;151.094;2024-02-21T00:06:16;5.13;;;0.83;;
20792;SDS011;10556;-33.662;151.094;2024-02-21T00:11:19;3.13;;;0.73;;
20792;SDS011;10556;-33.662;151.094;2024-02-21T00:16:23;5.17;;;0.77;;
20792;SDS011;10556;-33.662;151.094;2024-02-21T00:21:26;2.63;;;0.67;;
20792;SDS011;10556;-33.662;151.094;2024-02-21T00:26:29;2.70;;;0.80;;
20792;SDS011;10556;-33.662;151.094;2024-02-21T00:31:33;1.47;;;0.60;;
20792;SDS011;10556;-33.662;151.094;2024-02-21T00:36:35;4.63;;;0.70;;
20792;SDS011;10556;-33.662;151.094;2024-02-21T00:41:38;4.32;;;0.70;;
20792;SDS011;10556;-33.662;151.094;2024-02-21T00:46:42;3.35;;;0.98;;
20792;SDS011;10556;-33.662;151.094;2024-02-21T00:51:45;3.58;;;0.60;;
20792;SDS011;10556;-33.662;151.094;2024-02-21T00:56:47;2.00;;;0.52;;
20792;SDS011;10556;-33.662;151.094;2024-02-21T01:01:51;3.55;;;0.40;;
20792;SDS011;10556;-33.662;151.094;2024-02-21T01:06:54;3.28;;;1.00;;
20792;SDS011;10556;-33.662;151.094;2024-02-21T01:11:56;2.03;;;0.75;;
20792;SDS011;10556;-33.662;151.094;2024-02-21T01:17:00;3.63;;;0.90;;
20792;SDS011;10556;-33.662;151.094;2024-02-21T01:22:03;3.80;;;0.80;;
20792;SDS011;10556;-33.662;151.094;2024-02-21T01:27:05;2.23;;;0.60;;
20792;SDS011;10556;-33.662;151.094;2024-02-21T01:32:10;3.80;;;0.53;;
20792;SDS011;10556;-33.662;151.094;2024-02-21T01:37:12;6.07;;;1.03;;
20792;SDS011;10556;-33.662;151.094;2024-02-21T01:42:15;4.80;;;0.50;;
20792;SDS011;10556;-33.662;151.094;2024-02-21T01:47:19;0.98;;;0.50;;
20792;SDS011;10556;-33.662;151.094;2024-02-21T01:52:21;2.03;;;0.57;;
20792;SDS011;10556;-33.662;151.094;2024-02-21T01:57:24;2.50;;;0.40;;
20792;SDS011;10556;-33.662;151.094;2024-02-21T02:02:28;4.80;;;0.65;;
20792;SDS011;10556;-33.662;151.094;2024-02-21T02:07:31;2.75;;;0.68;;
20792;SDS011;10556;-33.662;151.094;2024-02-21T02:12:34;2.03;;;0.50;;
20792;SDS011;10556;-33.662;151.094;2024-02-21T02:17:38;1.63;;;0.43;;
20792;SDS011;10556;-33.662;151.094;2024-02-21T02:22:40;4.88;;;0.95;;
20792;SDS011;10556;-33.662;151.094;2024-02-21T02:27:46;2.28;;;0.40;;
20792;SDS011;10556;-33.662;151.094;2024-02-21T02:32:48;1.40;;;0.40;;
20792;SDS011;10556;-33.662;151.094;2024-02-21T02:37:51;3.63;;;0.50;;
20792;SDS011;10556;-33.662;151.094;2024-02-21T02:42:56;2.63;;;0.43;;
20792;SDS011;10556;-33.662;151.094;2024-02-21T02:47:58;2.40;;;0.40;;
20792;SDS011;10556;-33.662;151.094;2024-02-21T02:53:01;2.95;;;0.40;;
20792;SDS011;10556;-33.662;151.094;2024-02-21T02:58:05;2.25;;;0.32;;
20792;SDS011;10556;-33.662;151.094;2024-02-21T03:03:08;3.28;;;0.60;;
20792;SDS011;10556;-33.662;151.094;2024-02-21T03:08:10;2.55;;;0.47;;
20792;SDS011;10556;-33.662;151.094;2024-02-21T03:13:15;1.92;;;0.60;;
20792;SDS011;10556;-33.662;151.094;2024-02-21T03:18:17;5.45;;;0.80;;
20792;SDS011;10556;-33.662;151.094;2024-02-21T03:23:20;5.93;;;0.60;;
20792;SDS011;10556;-33.662;151.094;2024-02-21T03:28:24;4.00;;;1.02;;
20792;SDS011;10556;-33.662;151.094;2024-02-21T03:33:26;3.25;;;0.55;;
20792;SDS011;10556;-33.662;151.094;2024-02-21T03:38:29;1.75;;;0.32;;
20792;SDS011;10556;-33.662;151.094;2024-02-21T03:43:33;3.35;;;0.60;;
20792;SDS011;10556;-33.662;151.094;2024-02-21T03:48:38;5.25;;;0.80;;
20792;SDS011;10556;-33.662;151.094;2024-02-21T03:53:40;2.65;;;0.50;;
20792;SDS011;10556;-33.662;151.094;2024-02-21T03:58:45;2.10;;;0.40;;
20792;SDS011;10556;-33.662;151.094;2024-02-21T04:03:47;3.70;;;0.68;;
20792;SDS011;10556;-33.662;151.094;2024-02-21T04:08:50;3.00;;;0.50;;
20792;SDS011;10556;-33.662;151.094;2024-02-21T04:13:54;3.33;;;0.55;;
20792;SDS011;10556;-33.662;151.094;2024-02-21T04:18:58;4.80;;;0.60;;
20792;SDS011;10556;-33.662;151.094;2024-02-21T04:24:00;2.70;;;0.40;;
20792;SDS011;10556;-33.662;151.094;2024-02-21T04:29:04;2.60;;;0.47;;
20792;SDS011;10556;-33.662;151.094;2024-02-21T04:34:07;2.60;;;0.43;;
20792;SDS011;10556;-33.662;151.094;2024-02-21T04:39:09;0.85;;;0.40;;
20792;SDS011;10556;-33.662;151.094;2024-02-21T04:44:13;7.88;;;0.60;;
20792;SDS011;10556;-33.662;151.094;2024-02-21T04:49:16;3.53;;;0.45;;
20792;SDS011;10556;-33.662;151.094;2024-02-21T04:54:19;0.73;;;0.40;;
20792;SDS011;10556;-33.662;151.094;2024-02-21T04:59:23;3.72;;;0.63;;
20792;SDS011;10556;-33.662;151.094;2024-02-21T05:04:26;1.25;;;0.30;;
20792;SDS011;10556;-33.662;151.094;2024-02-21T05:09:28;1.75;;;0.52;;
20792;SDS011;10556;-33.662;151.094;2024-02-21T05:14:32;2.55;;;0.70;;
20792;SDS011;10556;-33.662;151.094;2024-02-21T05:19:35;2.00;;;0.40;;
20792;SDS011;10556;-33.662;151.094;2024-02-21T05:24:38;1.90;;;0.43;;
20792;SDS011;10556;-33.662;151.094;2024-02-21T05:29:43;3.30;;;0.55;;
20792;SDS011;10556;-33.662;151.094;2024-02-21T05:34:48;1.05;;;0.35;;
20792;SDS011;10556;-33.662;151.094;2024-02-21T05:39:51;3.03;;;0.47;;
20792;SDS011;10556;-33.662;151.094;2024-02-21T05:44:55;3.80;;;0.40;;
20792;SDS011;10556;-33.662;151.094;2024-02-21T05:49:58;0.98;;;0.22;;
20792;SDS011;10556;-33.662;151.094;2024-02-21T05:55:00;3.83;;;0.40;;
20792;SDS011;10556;-33.662;151.094;2024-02-21T06:00:05;3.92;;;0.50;;
20792;SDS011;10556;-33.662;151.094;2024-02-21T06:05:08;2.05;;;0.40;;
20792;SDS011;10556;-33.662;151.094;2024-02-21T06:10:11;1.58;;;0.40;;
20792;SDS011;10556;-33.662;151.094;2024-02-21T06:15:16;0.32;;;0.17;;
20792;SDS011;10556;-33.662;151.094;2024-02-21T06:20:18;2.20;;;0.30;;
20792;SDS011;10556;-33.662;151.094;2024-02-21T06:25:21;1.00;;;0.43;;
20792;SDS011;10556;-33.662;151.094;2024-02-21T06:30:25;5.75;;;0.57;;
20792;SDS011;10556;-33.662;151.094;2024-02-21T06:35:28;1.20;;;0.23;;
20792;SDS011;10556;-33.662;151.094;2024-02-21T06:40:30;1.97;;;0.40;;
20792;SDS011;10556;-33.662;151.094;2024-02-21T06:45:35;2.07;;;0.73;;
20792;SDS011;10556;-33.662;151.094;2024-02-21T06:50:38;1.43;;;0.20;;
20792;SDS011;10556;-33.662;151.094;2024-02-21T06:55:40;1.63;;;0.30;;
20792;SDS011;10556;-33.662;151.094;2024-02-21T07:00:45;3.23;;;0.40;;
20792;SDS011;10556;-33.662;151.094;2024-02-21T07:05:47;2.37;;;0.40;;
20792;SDS011;10556;-33.662;151.094;2024-02-21T07:10:50;0.77;;;0.20;;
20792;SDS011;10556;-33.662;151.094;2024-02-21T07:15:54;2.37;;;0.60;;
20792;SDS011;10556;-33.662;151.094;2024-02-21T07:20:56;2.00;;;0.50;;
20792;SDS011;10556;-33.662;151.094;2024-02-21T07:25:59;1.23;;;0.40;;
20792;SDS011;10556;-33.662;151.094;2024-02-21T07:31:03;1.37;;;0.37;;
20792;SDS011;10556;-33.662;151.094;2024-02-21T07:36:06;4.27;;;0.43;;
20792;SDS011;10556;-33.662;151.094;2024-02-21T07:41:09;1.70;;;0.47;;
20792;SDS011;10556;-33.662;151.094;2024-02-21T07:46:13;2.67;;;0.60;;
20792;SDS011;10556;-33.662;151.094;2024-02-21T07:51:16;1.70;;;0.30;;
20792;SDS011;10556;-33.662;151.094;2024-02-21T07:56:18;3.63;;;0.30;;
20792;SDS011;10556;-33.662;151.094;2024-02-21T08:01:23;8.00;;;0.53;;
20792;SDS011;10556;-33.662;151.094;2024-02-21T08:06:25;3.53;;;0.53;;
20792;SDS011;10556;-33.662;151.094;2024-02-21T08:11:27;2.20;;;0.30;;
20792;SDS011;10556;-33.662;151.094;2024-02-21T08:16:33;1.30;;;0.30;;
20792;SDS011;10556;-33.662;151.094;2024-02-21T08:21:36;3.60;;;0.43;;
20792;SDS011;10556;-33.662;151.094;2024-02-21T08:32:14;4.50;;;0.47;;
20792;SDS011;10556;-33.662;151.094;2024-02-21T08:37:16;6.47;;;0.87;;
20792;SDS011;10556;-33.662;151.094;2024-02-21T08:42:19;3.20;;;0.50;;
20792;SDS011;10556;-33.662;151.094;2024-02-21T08:47:24;7.20;;;0.60;;
20792;SDS011;10556;-33.662;151.094;2024-02-21T08:52:26;5.00;;;0.40;;
20792;SDS011;10556;-33.662;151.094;2024-02-21T08:57:28;5.20;;;0.70;;
20792;SDS011;10556;-33.662;151.094;2024-02-21T09:02:33;1.90;;;0.40;;
20792;SDS011;10556;-33.662;151.094;2024-02-21T09:07:35;1.17;;;0.23;;
20792;SDS011;10556;-33.662;151.094;2024-02-21T09:12:38;5.13;;;0.77;;
20792;SDS011;10556;-33.662;151.094;2024-02-21T09:17:42;5.20;;;0.53;;
20792;SDS011;10556;-33.662;151.094;2024-02-21T09:22:44;2.20;;;0.60;;
20792;SDS011;10556;-33.662;151.094;2024-02-21T09:27:47;3.60;;;0.50;;
20792;SDS011;10556;-33.662;151.094;2024-02-21T09:32:51;6.70;;;0.73;;
20792;SDS011;10556;-33.662;151.094;2024-02-21T09:37:54;2.03;;;0.40;;
20792;SDS011;10556;-33.662;151.094;2024-02-21T09:42:59;2.03;;;0.70;;
20792;SDS011;10556;-33.662;151.094;2024-02-21T09:48:18;7.33;;;1.20;;
20792;SDS011;10556;-33.662;151.094;2024-02-21T09:53:31;7.07;;;0.90;;
20792;SDS011;10556;-33.662;151.094;2024-02-21T09:58:35;2.30;;;0.53;;
20792;SDS011;10556;-33.662;151.094;2024-02-21T10:03:39;2.80;;;0.60;;
20792;SDS011;10556;-33.662;151.094;2024-02-21T10:08:42;4.13;;;0.70;;
20792;SDS011;10556;-33.662;151.094;2024-02-21T10:13:44;5.83;;;0.60;;
20792;SDS011;10556;-33.662;151.094;2024-02-21T10:18:53;1.07;;;0.33;;
20792;SDS011;10556;-33.662;151.094;2024-02-21T10:23:56;6.43;;;0.70;;
20792;SDS011;10556;-33.662;151.094;2024-02-21T10:28:58;5.90;;;0.60;;
20792;SDS011;10556;-33.662;151.094;2024-02-21T10:34:05;5.33;;;1.00;;
20792;SDS011;10556;-33.662;151.094;2024-02-21T10:39:07;4.90;;;0.70;;
20792;SDS011;10556;-33.662;151.094;2024-02-21T10:44:10;3.80;;;0.90;;
20792;SDS011;10556;-33.662;151.094;2024-02-21T10:49:16;6.10;;;1.10;;
20792;SDS011;10556;-33.662;151.094;2024-02-21T10:54:39;7.57;;;1.00;;
20792;SDS011;10556;-33.662;151.094;2024-02-21T10:59:45;12.70;;;1.30;;
20792;SDS011;10556;-33.662;151.094;2024-02-21T11:04:53;5.77;;;1.37;;
20792;SDS011;10556;-33.662;151.094;2024-02-21T11:09:57;11.10;;;1.13;;
20792;SDS011;10556;-33.662;151.094;2024-02-21T11:15:06;8.23;;;1.20;;
20792;SDS011;10556;-33.662;151.094;2024-02-21T11:20:14;5.57;;;0.90;;
20792;SDS011;10556;-33.662;151.094;2024-02-21T11:25:21;11.50;;;0.90;;
20792;SDS011;10556;-33.662;151.094;2024-02-21T11:30:26;8.17;;;0.90;;
20792;SDS011;10556;-33.662;151.094;2024-02-21T11:35:35;3.40;;;0.80;;
20792;SDS011;10556;-33.662;151.094;2024-02-21T11:40:39;5.83;;;0.77;;
20792;SDS011;10556;-33.662;151.094;2024-02-21T11:45:41;10.60;;;1.40;;
20792;SDS011;10556;-33.662;151.094;2024-02-21T11:50:54;6.47;;;1.53;;
20792;SDS011;10556;-33.662;151.094;2024-02-21T11:55:57;11.03;;;1.20;;
20792;SDS011;10556;-33.662;151.094;2024-02-21T12:01:00;9.10;;;1.00;;
20792;SDS011;10556;-33.662;151.094;2024-02-21T12:06:06;12.83;;;1.37;;
20792;SDS011;10556;-33.662;151.094;2024-02-21T12:11:16;12.03;;;1.67;;
20792;SDS011;10556;-33.662;151.094;2024-02-21T12:16:20;4.83;;;1.00;;
20792;SDS011;10556;-33.662;151.094;2024-02-21T12:21:29;9.70;;;1.50;;
20792;SDS011;10556;-33.662;151.094;2024-02-21T12:26:33;13.77;;;1.43;;
20792;SDS011;10556;-33.662;151.094;2024-02-21T12:31:35;11.97;;;1.60;;
20792;SDS011;10556;-33.662;151.094;2024-02-21T12:36:43;9.20;;;1.27;;
20792;SDS011;10556;-33.662;151.094;2024-02-21T12:41:46;13.47;;;1.47;;
20792;SDS011;10556;-33.662;151.094;2024-02-21T12:46:48;7.17;;;1.23;;
20792;SDS011;10556;-33.662;151.094;2024-02-21T12:51:52;9.47;;;1.63;;
20792;SDS011;10556;-33.662;151.094;2024-02-21T12:56:55;16.17;;;2.00;;
20792;SDS011;10556;-33.662;151.094;2024-02-21T13:01:58;13.00;;;1.70;;
20792;SDS011;10556;-33.662;151.094;2024-02-21T13:07:02;13.73;;;1.97;;
20792;SDS011;10556;-33.662;151.094;2024-02-21T13:12:05;9.20;;;1.73;;
20792;SDS011;10556;-33.662;151.094;2024-02-21T13:17:07;15.23;;;2.23;;
20792;SDS011;10556;-33.662;151.094;2024-02-21T13:22:12;15.60;;;2.80;;
20792;SDS011;10556;-33.662;151.094;2024-02-21T13:27:14;19.43;;;3.43;;
20792;SDS011;10556;-33.662;151.094;2024-02-21T13:32:16;27.30;;;5.70;;
20792;SDS011;10556;-33.662;151.094;2024-02-21T13:37:21;27.63;;;5.60;;
20792;SDS011;10556;-33.662;151.094;2024-02-21T13:42:23;21.47;;;6.07;;
20792;SDS011;10556;-33.662;151.094;2024-02-21T13:47:26;18.53;;;5.73;;
20792;SDS011;10556;-33.662;151.094;2024-02-21T13:52:30;32.90;;;7.73;;
20792;SDS011;10556;-33.662;151.094;2024-02-21T13:57:32;38.23;;;8.80;;
20792;SDS011;10556;-33.662;151.094;2024-02-21T14:02:35;27.60;;;6.57;;
20792;SDS011;10556;-33.662;151.094;2024-02-21T14:07:39;22.30;;;5.53;;
20792;SDS011;10556;-33.662;151.094;2024-02-21T14:12:41;21.30;;;5.87;;
20792;SDS011;10556;-33.662;151.094;2024-02-21T14:17:44;27.57;;;5.87;;
20792;SDS011;10556;-33.662;151.094;2024-02-21T14:22:48;22.67;;;6.03;;
20792;SDS011;10556;-33.662;151.094;2024-02-21T14:27:50;26.47;;;6.40;;
20792;SDS011;10556;-33.662;151.094;2024-02-21T14:32:53;11.67;;;4.30;;
20792;SDS011;10556;-33.662;151.094;2024-02-21T14:37:57;21.77;;;6.43;;
20792;SDS011;10556;-33.662;151.094;2024-02-21T14:42:59;30.13;;;6.83;;
20792;SDS011;10556;-33.662;151.094;2024-02-21T14:48:02;25.10;;;6.27;;
20792;SDS011;10556;-33.662;151.094;2024-02-21T14:53:06;19.73;;;4.70;;
20792;SDS011;10556;-33.662;151.094;2024-02-21T14:58:09;27.13;;;4.73;;
20792;SDS011;10556;-33.662;151.094;2024-02-21T15:03:11;22.10;;;3.93;;
20792;SDS011;10556;-33.662;151.094;2024-02-21T15:08:15;4.47;;;2.43;;
20792;SDS011;10556;-33.662;151.094;2024-02-21T15:13:18;5.50;;;2.43;;
20792;SDS011;10556;-33.662;151.094;2024-02-21T15:18:21;5.83;;;3.07;;
20792;SDS011;10556;-33.662;151.094;2024-02-21T15:23:26;7.63;;;3.60;;
20792;SDS011;10556;-33.662;151.094;2024-02-21T15:28:28;6.87;;;2.90;;
20792;SDS011;10556;-33.662;151.094;2024-02-21T15:33:31;3.03;;;1.50;;
20792;SDS011;10556;-33.662;151.094;2024-02-21T15:38:35;13.50;;;4.00;;
20792;SDS011;10556;-33.662;151.094;2024-02-21T15:43:37;13.30;;;3.60;;
20792;SDS011;10556;-33.662;151.094;2024-02-21T15:48:40;38.67;;;5.50;;
20792;SDS011;10556;-33.662;151.094;2024-02-21T15:53:45;10.30;;;3.20;;
20792;SDS011;10556;-33.662;151.094;2024-02-21T15:58:47;7.73;;;3.33;;
20792;SDS011;10556;-33.662;151.094;2024-02-21T16:03:50;10.47;;;3.43;;
20792;SDS011;10556;-33.662;151.094;2024-02-21T16:14:23;5.07;;;2.20;;
20792;SDS011;10556;-33.662;151.094;2024-02-21T16:19:26;11.67;;;1.70;;
20792;SDS011;10556;-33.662;151.094;2024-02-21T16:24:30;5.10;;;1.80;;
20792;SDS011;10556;-33.662;151.094;2024-02-21T16:29:32;2.53;;;1.10;;
20792;SDS011;10556;-33.662;151.094;2024-02-21T16:34:35;1.87;;;1.10;;
20792;SDS011;10556;-33.662;151.094;2024-02-21T16:39:39;1.30;;;1.10;;
20792;SDS011;10556;-33.662;151.094;2024-02-21T16:44:41;7.03;;;0.87;;
20792;SDS011;10556;-33.662;151.094;2024-02-21T16:49:44;7.40;;;1.43;;
20792;SDS011;10556;-33.662;151.094;2024-02-21T16:54:48;2.57;;;0.90;;
20792;SDS011;10556;-33.662;151.094;2024-02-21T16:59:52;5.73;;;1.20;;
20792;SDS011;10556;-33.662;151.094;2024-02-21T17:04:55;11.73;;;1.57;;
20792;SDS011;10556;-33.662;151.094;2024-02-21T17:09:59;5.47;;;1.80;;
20792;SDS011;10556;-33.662;151.094;2024-02-21T17:15:02;2.33;;;1.60;;
20792;SDS011;10556;-33.662;151.094;2024-02-21T17:20:05;5.17;;;1.47;;
20792;SDS011;10556;-33.662;151.094;2024-02-21T17:25:10;3.10;;;1.40;;
20792;SDS011;10556;-33.662;151.094;2024-02-21T17:30:13;6.03;;;1.70;;
20792;SDS011;10556;-33.662;151.094;2024-02-21T17:35:16;1.67;;;1.30;;
20792;SDS011;10556;-33.662;151.094;2024-02-21T17:40:21;6.40;;;2.47;;
20792;SDS011;10556;-33.662;151.094;2024-02-21T17:45:24;7.37;;;1.97;;
20792;SDS011;10556;-33.662;151.094;2024-02-21T17:50:26;6.33;;;1.37;;
20792;SDS011;10556;-33.662;151.094;2024-02-21T17:55:31;2.90;;;1.10;;
20792;SDS011;10556;-33.662;151.094;2024-02-21T18:00:33;0.93;;;0.80;;
20792;SDS011;10556;-33.662;151.094;2024-02-21T18:05:35;3.50;;;0.80;;
20792;SDS011;10556;-33.662;151.094;2024-02-21T18:10:40;0.80;;;0.80;;
20792;SDS011;10556;-33.662;151.094;2024-02-21T18:15:42;1.07;;;0.80;;
20792;SDS011;10556;-33.662;151.094;2024-02-21T18:20:45;4.93;;;1.33;;
20792;SDS011;10556;-33.662;151.094;2024-02-21T18:25:50;3.23;;;1.53;;
20792;SDS011;10556;-33.662;151.094;2024-02-21T18:30:53;2.60;;;1.10;;
20792;SDS011;10556;-33.662;151.094;2024-02-21T18:35:55;7.60;;;1.40;;
20792;SDS011;10556;-33.662;151.094;2024-02-21T18:40:59;0.97;;;0.90;;
20792;SDS011;10556;-33.662;151.094;2024-02-21T18:46:01;0.60;;;0.60;;
20792;SDS011;10556;-33.662;151.094;2024-02-21T18:51:04;4.50;;;0.50;;
20792;SDS011;10556;-33.662;151.094;2024-02-21T18:56:08;0.73;;;0.50;;
20792;SDS011;10556;-33.662;151.094;2024-02-21T19:01:11;2.33;;;0.87;;
20792;SDS011;10556;-33.662;151.094;2024-02-21T19:06:13;0.43;;;0.43;;
20792;SDS011;10556;-33.662;151.094;2024-02-21T19:11:17;3.23;;;0.50;;
20792;SDS011;10556;-33.662;151.094;2024-02-21T19:16:20;0.30;;;0.30;;
20792;SDS011;10556;-33.662;151.094;2024-02-21T19:21:23;0.10;;;0.10;;
20792;SDS011;10556;-33.662;151.094;2024-02-21T19:26:27;0.20;;;0.20;;
20792;SDS011;10556;-33.662;151.094;2024-02-21T19:31:31;0.10;;;0.10;;
20792;SDS011;10556;-33.662;151.094;2024-02-21T19:36:33;0.10;;;0.10;;
20792;SDS011;10556;-33.662;151.094;2024-02-21T19:41:38;1.53;;;0.20;;
20792;SDS011;10556;-33.662;151.094;2024-02-21T19:46:40;0.53;;;0.47;;
20792;SDS011;10556;-33.662;151.094;2024-02-21T19:51:43;0.60;;;0.40;;
20792;SDS011;10556;-33.662;151.094;2024-02-21T19:56:47;0.50;;;0.20;;
20792;SDS011;10556;-33.662;151.094;2024-02-21T20:01:49;0.20;;;0.20;;
20792;SDS011;10556;-33.662;151.094;2024-02-21T20:06:52;0.20;;;0.20;;
20792;SDS011;10556;-33.662;151.094;2024-02-21T20:11:56;1.50;;;0.50;;
20792;SDS011;10556;-33.662;151.094;2024-02-21T20:16:58;0.93;;;0.50;;
20792;SDS011;10556;-33.662;151.094;2024-02-21T20:22:01;0.43;;;0.40;;
20792;SDS011;10556;-33.662;151.094;2024-02-21T20:27:06;2.00;;;0.50;;
20792;SDS011;10556;-33.662;151.094;2024-02-21T20:32:09;0.77;;;0.40;;
20792;SDS011;10556;-33.662;151.094;2024-02-21T20:37:11;39.53;;;1.37;;
20792;SDS011;10556;-33.662;151.094;2024-02-21T20:42:15;18.10;;;0.70;;
20792;SDS011;10556;-33.662;151.094;2024-02-21T20:47:18;0.33;;;0.30;;
20792;SDS011;10556;-33.662;151.094;2024-02-21T20:52:20;2.73;;;0.53;;
20792;SDS011;10556;-33.662;151.094;2024-02-21T20:57:25;1.03;;;0.40;;
20792;SDS011;10556;-33.662;151.094;2024-02-21T21:02:27;1.70;;;0.60;;
20792;SDS011;10556;-33.662;151.094;2024-02-21T21:07:30;9.53;;;1.10;;
20792;SDS011;10556;-33.662;151.094;2024-02-21T21:12:35;17.27;;;1.37;;
20792;SDS011;10556;-33.662;151.094;2024-02-21T21:17:38;10.17;;;1.63;;
20792;SDS011;10556;-33.662;151.094;2024-02-21T21:22:40;39.90;;;3.33;;
20792;SDS011;10556;-33.662;151.094;2024-02-21T21:27:44;14.23;;;3.50;;
20792;SDS011;10556;-33.662;151.094;2024-02-21T21:32:47;17.63;;;4.93;;
20792;SDS011;10556;-33.662;151.094;2024-02-21T21:37:49;29.93;;;6.00;;
20792;SDS011;10556;-33.662;151.094;2024-02-21T21:42:53;48.70;;;6.60;;
20792;SDS011;10556;-33.662;151.094;2024-02-21T21:47:56;60.23;;;9.47;;
20792;SDS011;10556;-33.662;151.094;2024-02-21T21:52:58;30.53;;;8.00;;
20792;SDS011;10556;-33.662;151.094;2024-02-21T21:58:02;48.00;;;7.63;;
20792;SDS011;10556;-33.662;151.094;2024-02-21T22:03:05;15.80;;;5.27;;
20792;SDS011;10556;-33.662;151.094;2024-02-21T22:08:07;15.23;;;5.47;;
20792;SDS011;10556;-33.662;151.094;2024-02-21T22:13:12;13.00;;;4.90;;
20792;SDS011;10556;-33.662;151.094;2024-02-21T22:18:14;10.37;;;4.87;;
20792;SDS011;10556;-33.662;151.094;2024-02-21T22:23:16;9.33;;;2.80;;
20792;SDS011;10556;-33.662;151.094;2024-02-21T22:28:21;7.03;;;2.83;;
20792;SDS011;10556;-33.662;151.094;2024-02-21T22:33:23;5.43;;;2.80;;
20792;SDS011;10556;-33.662;151.094;2024-02-21T22:38:25;6.50;;;2.53;;
20792;SDS011;10556;-33.662;151.094;2024-02-21T22:43:30;5.27;;;2.73;;
20792;SDS011;10556;-33.662;151.094;2024-02-21T22:48:32;4.70;;;2.50;;
20792;SDS011;10556;-33.662;151.094;2024-02-21T22:53:35;5.53;;;4.90;;
20792;SDS011;10556;-33.662;151.094;2024-02-21T22:58:39;7.43;;;5.70;;
20792;SDS011;10556;-33.662;151.094;2024-02-21T23:03:41;5.30;;;4.80;;
20792;SDS011;10556;-33.662;151.094;2024-02-21T23:08:44;6.93;;;4.60;;
20792;SDS011;10556;-33.662;151.094;2024-02-21T23:13:48;5.30;;;3.43;;
20792;SDS011;10556;-33.662;151.094;2024-02-21T23:18:51;7.73;;;4.13;;
20792;SDS011;10556;-33.662;151.094;2024-02-21T23:23:54;5.53;;;4.50;;
20792;SDS011;10556;-33.662;151.094;2024-02-21T23:28:58;6.10;;;4.37;;
20792;SDS011;10556;-33.662;151.094;2024-02-21T23:34:01;5.70;;;4.90;;
20792;SDS011;10556;-33.662;151.094;2024-02-21T23:39:03;7.97;;;5.73;;
20792;SDS011;10556;-33.662;151.094;2024-02-21T23:44:08;5.90;;;5.40;;
20792;SDS011;10556;-33.662;151.094;2024-02-21T23:49:10;6.22;;;5.63;;
20792;SDS011;10556;-33.662;151.094;2024-02-21T23:54:12;6.78;;;6.05;;
20792;SDS011;10556;-33.662;151.094;2024-02-21T23:59:17;5.85;;;5.35;;
